Adak, AK

10:48 PM HDT on May 25, 2015 (GMT -0900)
Adak | | Change Station
CLOSE
Current Station
Airport
Location: Adak,
Elevation: 13 ft
Nearby Weather Stations

Elev 13 ft 51.88 °N, 176.65 °W | Updated 12 minutes ago

Overcast
Overcast
41 °F
Feels Like 32 °F
N
18
Wind Variable Wind from WSW
Gusts 24 mph

Today
High -- | Low -- °F
--% Chance of Precip.
Yesterday
High -- | Low -- °F
Precip. -- in
6:39 AM 10:47 PM
First Quarter, 56% visible
Pressure 29.36 in
Visibility 8.0 miles
Clouds Few 1600 ft
Mostly Cloudy 4100 ft
Overcast 4700 ft
Windchill 32 °F
Dew Point 34 °F
Humidity 76%
Rainfall 0.12 in
Snow Depth Not available.
UV 0 out of 12
Pollen Not available.
Air Quality Not available.
Flu Activity Local Activity
METAR PADK 260736Z 24016G21KT 8SM FEW016 BKN041 OVC047 05/01 A2936 RMK AO1

More Conditions Fewer Conditions

Pressure 29.36 in
Visibility 8.0 miles
Clouds Few 1600 ft
Mostly Cloudy 4100 ft
Overcast 4700 ft
Windchill 32 °F
Dew Point 34 °F
Humidity 76%
Rainfall 0.12 in
Snow Depth Not available.
UV 0 out of 12
Pollen Not available.
Air Quality Not available.
Flu Activity Local Activity
METAR PADK 260736Z 24016G21KT 8SM FEW016 BKN041 OVC047 05/01 A2936 RMK AO1

More Conditions Fewer Conditions

10-Day Weather Forecast

Almanac

Astronomy

May. 25, 2015 Rise Set
Actual Time
Civil Twilight
Nautical Twilight
Astronomical Twilight
Moon
Length of Visible Light
Length of Day
Tomorrow will be .
, % of the Moon is Illuminated

Today's Extremes

State Highs State Lows

Community

WunderPhotos

Upload Photos

1,824,302 photos uploaded!

WunderBlogs® & News

Nearby

Air Quality

  Air Quality AQ Index Pollutant
Not available.

Snow Depth

Station Depth Elevation

Earthquake Activity

City Distance Mag. Time & Date
Minimum magnitude displayed is 2.5.

Coastal Water Temperatures

Place Temperature

Stations

Nearby Weather Stations

Station Location Temp. Windchill Dew Point Humidity Wind Precip. Elev Updated Type